.

webcam MeteoEstarreja  MeteoEstarreja webcam


Visit our other weather sites:

Template documentation
and downloads

And another site



Relatórios METAR próximos

   
LPPR - Francisco Sá Carneiro, Porto
Distância da estação: N 52 km
Actualizado: 29-11-2020 10:30
Few Clouds  
Few Clouds  
   Vento: ESE 13 km/h
Vento: ESE 13 km/h
Temperatura: 14°C
Ponto de Orvalho: 9°C
Humidade: 72%
Barómetro: 1013 hPa
Clouds: Few Clouds
Visibilidade: Mais de 10 km
Nuvens: Few Clouds 2500 ft
LPPR 291030Z 11007KT 9999 FEW025 14/09 Q1013
  

Script developed by  Saratoga-weather.org Adaptado para o template por  Weerstation Leuven

Equipamento utilizado:

Estação
WeatherDuino PRO2

WeatherDuino PRO2

CT2IUB